createdAt,value
2022-09-20T00:00:45.327Z,1.20
2022-09-20T00:03:13.633Z,1.20
2022-09-20T00:05:42.242Z,1.60
2022-09-20T00:08:10.379Z,1.10
2022-09-20T00:10:39.347Z,1.10
2022-09-20T00:13:07.059Z,1.20
2022-09-20T00:15:33.931Z,1.20
2022-09-20T00:18:00.386Z,1.07
2022-09-20T00:20:26.792Z,1.30
2022-09-20T00:22:53.404Z,1.40
2022-09-20T00:25:20.034Z,1.30
2022-09-20T00:27:46.434Z,1.20
2022-09-20T00:30:13.516Z,1.10
2022-09-20T00:32:40.555Z,1.40
2022-09-20T00:35:13.101Z,1.03
2022-09-20T00:37:41.030Z,1.00
2022-09-20T00:40:09.559Z,1.10
2022-09-20T00:42:36.086Z,1.10
2022-09-20T00:45:02.644Z,1.33
2022-09-20T00:47:37.962Z,1.40
2022-09-20T00:50:23.081Z,1.30
2022-09-20T00:52:51.886Z,1.50
2022-09-20T00:55:19.071Z,1.20
2022-09-20T00:57:46.051Z,0.97
2022-09-20T01:00:13.076Z,1.23
2022-09-20T01:02:41.820Z,1.30
2022-09-20T01:05:09.508Z,1.20
2022-09-20T01:07:35.989Z,1.30
2022-09-20T01:10:02.402Z,1.00
2022-09-20T01:12:30.599Z,1.23
2022-09-20T01:14:57.663Z,1.17
2022-09-20T01:17:25.284Z,1.20
2022-09-20T01:20:04.043Z,1.27
2022-09-20T01:22:41.899Z,1.10
2022-09-20T01:25:14.544Z,1.20
2022-09-20T01:27:40.907Z,0.93
2022-09-20T01:30:09.213Z,1.50
2022-09-20T01:32:54.271Z,1.30
2022-09-20T01:35:23.350Z,1.20
2022-09-20T01:38:04.868Z,1.30
2022-09-20T01:40:37.564Z,1.17
2022-09-20T01:43:13.647Z,1.20
2022-09-20T01:45:45.088Z,1.20
2022-09-20T01:48:30.102Z,1.40
2022-09-20T01:51:14.849Z,1.30
2022-09-20T01:53:53.635Z,1.07
2022-09-20T01:56:38.950Z,1.00
2022-09-20T01:59:24.245Z,0.93
2022-09-20T02:01:53.980Z,0.90
2022-09-20T02:04:26.324Z,0.90
2022-09-20T02:06:53.989Z,1.07
2022-09-20T02:09:29.742Z,1.03
2022-09-20T02:12:14.848Z,1.03
2022-09-20T02:14:52.891Z,1.20
2022-09-20T02:17:22.047Z,0.83
2022-09-20T02:20:00.386Z,0.93
2022-09-20T02:22:26.815Z,0.83
2022-09-20T02:25:11.942Z,0.80
2022-09-20T02:27:49.792Z,0.80
2022-09-20T02:30:24.395Z,0.70
2022-09-20T02:33:02.654Z,0.90
2022-09-20T02:35:32.715Z,1.10
2022-09-20T02:38:18.165Z,0.97
2022-09-20T02:41:03.131Z,0.83
2022-09-20T02:43:29.490Z,0.80
2022-09-20T02:46:01.963Z,1.13
2022-09-20T02:48:34.566Z,0.90
2022-09-20T02:51:06.220Z,1.03
2022-09-20T02:53:41.008Z,0.90
2022-09-20T02:56:25.387Z,1.10
2022-09-20T02:58:55.516Z,1.10
2022-09-20T03:01:25.027Z,0.97
2022-09-20T03:03:59.261Z,1.10
2022-09-20T03:06:44.532Z,1.10
2022-09-20T03:09:27.633Z,1.33
2022-09-20T03:12:03.250Z,1.00
2022-09-20T03:14:50.023Z,1.07
2022-09-20T03:17:21.135Z,1.13
2022-09-20T03:20:08.786Z,1.37
2022-09-20T03:22:53.706Z,1.17
2022-09-20T03:25:27.552Z,1.60
2022-09-20T03:28:12.813Z,1.40
2022-09-20T03:31:00.787Z,1.47
2022-09-20T03:33:27.165Z,1.40
2022-09-20T03:36:12.283Z,1.70
2022-09-20T03:38:52.367Z,1.80
2022-09-20T03:41:31.797Z,1.60
2022-09-20T03:43:58.176Z,1.40
2022-09-20T03:46:31.118Z,1.50
2022-09-20T03:49:06.460Z,1.37
2022-09-20T03:51:41.211Z,1.70
2022-09-20T03:54:10.709Z,1.30
2022-09-20T03:56:49.061Z,1.70
2022-09-20T03:59:37.671Z,1.60
2022-09-20T04:02:22.598Z,1.90
2022-09-20T04:05:00.382Z,2.10
2022-09-20T04:07:26.770Z,1.80
2022-09-20T04:10:09.929Z,1.70
2022-09-20T04:12:42.466Z,1.63
2022-09-20T04:15:27.838Z,1.80
2022-09-20T04:18:20.028Z,1.60
2022-09-20T04:20:48.594Z,1.87
2022-09-20T04:23:33.600Z,3.00
2022-09-20T04:26:01.069Z,2.73
2022-09-20T04:28:30.990Z,2.30
2022-09-20T04:31:04.223Z,2.50
2022-09-20T04:33:34.808Z,2.63
2022-09-20T04:36:23.241Z,7.40
2022-09-20T04:38:55.544Z,6.57
2022-09-20T04:41:54.514Z,5.40
2022-09-20T04:44:32.592Z,8.10
2022-09-20T04:47:18.918Z,7.43
2022-09-20T04:50:05.551Z,5.73
2022-09-20T04:52:44.019Z,5.07
2022-09-20T04:55:10.437Z,4.83
2022-09-20T04:57:53.954Z,6.13
2022-09-20T05:00:21.619Z,3.90
2022-09-20T05:03:06.623Z,5.00
2022-09-20T05:05:38.654Z,4.80
2022-09-20T05:08:16.634Z,5.40
2022-09-20T05:11:02.011Z,4.80
2022-09-20T05:13:38.372Z,5.83
2022-09-20T05:16:08.510Z,6.63
2022-09-20T05:18:47.801Z,7.03
2022-09-20T05:21:17.337Z,7.20
2022-09-20T05:23:46.473Z,7.20
2022-09-20T05:26:28.283Z,5.27
2022-09-20T05:28:58.986Z,6.63
2022-09-20T05:31:28.466Z,6.83
2022-09-20T05:34:01.961Z,5.83
2022-09-20T05:36:40.193Z,4.93
2022-09-20T05:39:23.709Z,3.90
2022-09-20T05:41:58.922Z,2.90
2022-09-20T05:44:41.301Z,7.73
2022-09-20T05:47:27.102Z,7.40
2022-09-20T05:50:15.602Z,6.60
2022-09-20T05:52:53.926Z,3.30
2022-09-20T05:55:28.437Z,4.10
2022-09-20T05:58:04.661Z,3.87
2022-09-20T06:00:49.657Z,4.10
2022-09-20T06:03:30.425Z,3.03
2022-09-20T06:06:04.579Z,2.90
2022-09-20T06:08:50.158Z,3.83
2022-09-20T06:11:22.075Z,3.50
2022-09-20T06:14:03.836Z,3.10
2022-09-20T06:16:30.403Z,3.20
2022-09-20T06:19:13.370Z,2.60
2022-09-20T06:21:56.247Z,2.50
2022-09-20T06:24:28.726Z,2.43
2022-09-20T06:26:56.972Z,2.40
2022-09-20T06:29:30.329Z,2.20
2022-09-20T06:31:56.888Z,2.90
2022-09-20T06:34:23.381Z,1.90
2022-09-20T06:37:17.220Z,1.97
2022-09-20T06:40:06.020Z,2.00
2022-09-20T06:42:32.973Z,11.73
2022-09-20T06:44:59.415Z,2.70
2022-09-20T06:47:27.037Z,2.30
2022-09-20T06:49:53.485Z,2.30
2022-09-20T06:52:20.945Z,2.00
2022-09-20T06:54:48.841Z,1.60
2022-09-20T06:57:17.131Z,2.10
2022-09-20T06:59:43.656Z,1.93
2022-09-20T07:02:11.061Z,1.90
2022-09-20T07:04:37.590Z,2.10
2022-09-20T07:07:09.264Z,2.23
2022-09-20T07:09:36.103Z,2.50
2022-09-20T07:12:02.729Z,2.53
2022-09-20T07:14:29.175Z,2.10
2022-09-20T07:16:56.062Z,2.43
2022-09-20T07:19:23.474Z,2.33
2022-09-20T07:21:50.089Z,1.87
2022-09-20T07:24:16.504Z,2.30
2022-09-20T07:26:54.798Z,2.30
2022-09-20T07:29:21.435Z,2.20
2022-09-20T07:31:50.787Z,2.00
2022-09-20T07:34:20.521Z,2.10
2022-09-20T07:36:47.660Z,2.53
2022-09-20T07:39:14.087Z,2.13
2022-09-20T07:41:40.518Z,1.90
2022-09-20T07:44:24.368Z,2.13
2022-09-20T07:46:55.125Z,9.10
2022-09-20T07:49:22.614Z,1.83
2022-09-20T07:51:53.202Z,1.50
2022-09-20T07:54:20.051Z,1.43
2022-09-20T07:56:46.407Z,1.70
2022-09-20T07:59:13.649Z,1.53
2022-09-20T08:01:40.567Z,2.00
2022-09-20T08:04:07.719Z,1.80
2022-09-20T08:06:38.368Z,1.80
2022-09-20T08:09:09.029Z,2.07
2022-09-20T08:11:39.636Z,2.30
2022-09-20T08:14:07.830Z,2.30
2022-09-20T08:16:42.604Z,2.30
2022-09-20T08:19:09.391Z,19.93
2022-09-20T08:21:36.067Z,3.70
2022-09-20T08:24:04.057Z,1.83
2022-09-20T08:26:31.830Z,2.20
2022-09-20T08:28:59.533Z,4.80
2022-09-20T08:31:27.474Z,3.47
2022-09-20T08:33:54.635Z,1.90
2022-09-20T08:36:25.265Z,1.77
2022-09-20T08:41:56.998Z,1.30
2022-09-20T08:44:45.410Z,1.20
2022-09-20T08:47:12.131Z,0.80
2022-09-20T08:49:38.922Z,1.23
2022-09-20T08:52:10.399Z,1.70
2022-09-20T08:54:37.040Z,1.90
2022-09-20T08:57:07.162Z,1.40
2022-09-20T08:59:33.672Z,0.60
2022-09-20T09:02:00.162Z,0.77
2022-09-20T09:04:33.371Z,0.70
2022-09-20T09:06:59.757Z,1.10
2022-09-20T09:09:27.630Z,0.60
2022-09-20T09:11:55.224Z,0.87
2022-09-20T09:14:44.867Z,0.60
2022-09-20T09:17:12.226Z,0.63
2022-09-20T09:19:45.968Z,1.07
2022-09-20T09:22:17.451Z,0.70
2022-09-20T09:24:43.893Z,0.97
2022-09-20T09:27:17.622Z,2.67
2022-09-20T09:29:51.215Z,1.50
2022-09-20T09:32:20.995Z,0.63
2022-09-20T09:34:47.404Z,0.60
2022-09-20T09:37:29.076Z,0.77
2022-09-20T09:40:17.099Z,1.00
2022-09-20T09:42:54.650Z,1.17
2022-09-20T09:45:38.690Z,0.90
2022-09-20T09:48:18.176Z,0.73
2022-09-20T09:50:45.081Z,0.80
2022-09-20T09:53:23.739Z,0.80
2022-09-20T09:55:57.409Z,0.90
2022-09-20T09:58:39.298Z,0.90
2022-09-20T10:01:07.910Z,0.60
2022-09-20T10:03:45.891Z,0.90
2022-09-20T10:06:21.502Z,0.83
2022-09-20T10:08:51.165Z,0.80
2022-09-20T10:11:37.968Z,0.70
2022-09-20T10:14:13.427Z,0.60
2022-09-20T10:16:58.677Z,0.70
2022-09-20T10:19:43.805Z,1.03
2022-09-20T10:22:19.509Z,0.80
2022-09-20T10:24:55.256Z,1.00
2022-09-20T10:27:27.379Z,1.00
2022-09-20T10:30:00.388Z,0.67
2022-09-20T10:32:33.195Z,0.87
2022-09-20T10:34:59.561Z,0.60
2022-09-20T10:37:35.433Z,0.60
2022-09-20T10:40:20.300Z,0.70
2022-09-20T10:43:09.589Z,0.90
2022-09-20T10:46:14.404Z,0.70
2022-09-20T10:48:32.571Z,0.80
2022-09-20T10:51:02.043Z,0.63
2022-09-20T10:53:43.433Z,0.80
2022-09-20T10:56:15.804Z,0.60
2022-09-20T10:59:00.533Z,2.07
2022-09-20T11:01:30.066Z,2.73
2022-09-20T11:04:07.048Z,1.70
2022-09-20T11:06:48.796Z,1.20
2022-09-20T11:09:18.659Z,0.60
2022-09-20T11:11:51.150Z,0.97
2022-09-20T11:14:22.454Z,0.60
2022-09-20T11:17:01.961Z,0.60
2022-09-20T11:19:28.438Z,0.80
2022-09-20T11:22:00.812Z,2.53
2022-09-20T11:24:30.052Z,1.03
2022-09-20T11:26:59.248Z,1.03
2022-09-20T11:29:28.816Z,0.93
2022-09-20T11:31:58.286Z,0.93
2022-09-20T11:34:37.760Z,1.50
2022-09-20T11:37:04.368Z,1.30
2022-09-20T11:40:13.305Z,1.00
2022-09-20T11:43:02.041Z,1.10
2022-09-20T11:45:55.467Z,1.23
2022-09-20T11:48:38.711Z,1.10
2022-09-20T11:51:29.079Z,1.00
2022-09-20T11:54:01.739Z,1.27
2022-09-20T11:56:30.315Z,0.90
2022-09-20T11:59:00.533Z,1.67
2022-09-20T12:01:28.945Z,1.20
2022-09-20T12:04:20.545Z,1.13
2022-09-20T12:06:46.438Z,1.10
2022-09-20T12:09:32.441Z,1.07
2022-09-20T12:11:59.665Z,1.10
2022-09-20T12:14:28.817Z,1.00
2022-09-20T12:16:55.576Z,1.10
2022-09-20T12:19:32.305Z,0.80
2022-09-20T12:21:58.891Z,0.67
2022-09-20T12:24:26.867Z,1.00
2022-09-20T12:26:56.433Z,0.93
2022-09-20T12:29:25.728Z,1.30
2022-09-20T12:31:52.146Z,0.70
2022-09-20T12:34:18.604Z,0.50
2022-09-20T12:36:52.197Z,0.90
2022-09-20T12:39:25.218Z,0.80
2022-09-20T12:41:55.312Z,1.00
2022-09-20T12:44:21.703Z,0.87
2022-09-20T12:46:57.371Z,0.70
2022-09-20T12:49:43.102Z,2.23
2022-09-20T12:52:43.531Z,1.40
2022-09-20T12:55:11.995Z,1.10
2022-09-20T12:57:39.489Z,1.00
2022-09-20T13:00:07.304Z,0.90
2022-09-20T13:02:53.044Z,1.00
2022-09-20T13:05:36.335Z,1.13
2022-09-20T13:08:09.732Z,1.20
2022-09-20T13:10:38.387Z,0.93
2022-09-20T13:13:23.323Z,1.10
2022-09-20T13:15:53.418Z,1.17
2022-09-20T13:18:20.364Z,1.20
2022-09-20T13:20:47.069Z,1.47
2022-09-20T13:23:18.770Z,1.43
2022-09-20T13:25:45.367Z,1.20
2022-09-20T13:28:21.225Z,1.20
2022-09-20T13:30:48.007Z,3.33
2022-09-20T13:33:17.692Z,1.40
2022-09-20T13:35:47.134Z,1.57
2022-09-20T13:38:14.698Z,1.20
2022-09-20T13:40:47.509Z,2.10
2022-09-20T13:43:25.819Z,2.50
2022-09-20T13:45:53.979Z,1.43
2022-09-20T13:48:23.826Z,1.63
2022-09-20T13:50:53.516Z,1.50
2022-09-20T13:53:40.147Z,2.13
2022-09-20T13:56:15.827Z,1.70
2022-09-20T13:58:42.791Z,1.23
2022-09-20T14:01:22.285Z,1.37
2022-09-20T14:03:48.927Z,1.50
2022-09-20T14:06:16.710Z,1.60
2022-09-20T14:08:45.347Z,1.30
2022-09-20T14:11:16.482Z,1.60
2022-09-20T14:13:44.311Z,1.40
2022-09-20T14:16:11.571Z,1.10
2022-09-20T14:18:40.308Z,1.40
2022-09-20T14:21:10.944Z,1.70
2022-09-20T14:23:58.345Z,1.50
2022-09-20T14:26:37.860Z,1.20
2022-09-20T14:29:22.661Z,1.27
2022-09-20T14:31:49.248Z,1.70
2022-09-20T14:34:15.751Z,2.87
2022-09-20T14:36:42.898Z,1.70
2022-09-20T14:39:14.197Z,2.40
2022-09-20T14:41:41.905Z,1.53
2022-09-20T14:44:38.129Z,1.80
2022-09-20T14:47:14.587Z,1.70
2022-09-20T14:49:43.573Z,1.57
2022-09-20T14:52:44.316Z,1.57
2022-09-20T14:55:14.562Z,1.20
2022-09-20T14:57:42.505Z,1.73
2022-09-20T15:00:12.036Z,1.80
2022-09-20T15:02:41.308Z,2.00
2022-09-20T15:05:17.301Z,1.60
2022-09-20T15:07:43.911Z,1.43
2022-09-20T15:10:14.336Z,1.60
2022-09-20T15:12:42.128Z,1.60
2022-09-20T15:15:15.497Z,1.93
2022-09-20T15:17:51.686Z,1.80
2022-09-20T15:20:24.355Z,2.17
2022-09-20T15:22:51.575Z,2.30
2022-09-20T15:25:19.922Z,2.10
2022-09-20T15:27:51.039Z,2.37
2022-09-20T15:30:19.858Z,2.87
2022-09-20T15:32:46.621Z,3.50
2022-09-20T15:35:14.563Z,3.37
2022-09-20T15:37:41.146Z,2.50
2022-09-20T15:40:08.428Z,2.03
2022-09-20T15:42:38.396Z,1.77
2022-09-20T15:45:06.198Z,1.80
2022-09-20T15:47:32.944Z,1.70
2022-09-20T15:49:59.984Z,1.90
2022-09-20T15:52:28.506Z,2.00
2022-09-20T15:54:59.598Z,2.20
2022-09-20T15:57:27.097Z,1.80
2022-09-20T15:59:53.641Z,2.00
2022-09-20T16:02:21.175Z,2.00
2022-09-20T16:04:47.909Z,2.90
2022-09-20T16:07:19.382Z,5.00
2022-09-20T16:09:46.190Z,4.87
2022-09-20T16:12:13.142Z,2.97
2022-09-20T16:14:39.819Z,2.40
2022-09-20T16:17:06.700Z,2.20
2022-09-20T16:19:36.847Z,2.13
2022-09-20T16:22:03.881Z,2.80
2022-09-20T16:24:31.995Z,2.80
2022-09-20T16:27:01.271Z,3.07
2022-09-20T16:29:30.619Z,3.30
2022-09-20T16:31:58.077Z,3.93
2022-09-20T16:34:32.802Z,3.60
2022-09-20T16:37:17.476Z,2.70
2022-09-20T16:39:45.365Z,2.20
2022-09-20T16:42:13.929Z,3.30
2022-09-20T16:44:45.752Z,2.60
2022-09-20T16:47:22.374Z,2.57
2022-09-20T16:49:50.740Z,3.30
2022-09-20T16:52:17.930Z,4.57
2022-09-20T16:54:45.504Z,4.87
2022-09-20T16:57:16.257Z,14.30
2022-09-20T16:59:44.119Z,3.23
2022-09-20T17:02:14.359Z,3.50
2022-09-20T17:04:44.226Z,3.10
2022-09-20T17:07:12.032Z,2.93
2022-09-20T17:09:39.670Z,3.30
2022-09-20T17:12:09.905Z,2.73
2022-09-20T17:14:37.622Z,2.83
2022-09-20T17:17:04.971Z,2.97
2022-09-20T17:19:32.252Z,3.20
2022-09-20T17:22:00.214Z,3.63
2022-09-20T17:24:27.565Z,3.53
2022-09-20T17:26:55.288Z,2.93
2022-09-20T17:29:23.018Z,3.60
2022-09-20T17:31:55.632Z,15.43
2022-09-20T17:34:24.038Z,9.10
2022-09-20T17:36:51.074Z,5.60
2022-09-20T17:39:18.581Z,5.73
2022-09-20T17:41:48.788Z,5.60
2022-09-20T17:44:15.725Z,4.97
2022-09-20T17:46:46.524Z,4.13
2022-09-20T17:49:14.682Z,5.13
2022-09-20T17:51:42.807Z,8.60
2022-09-20T17:54:14.139Z,6.37
2022-09-20T17:56:46.554Z,9.93
2022-09-20T17:59:20.062Z,8.93
2022-09-20T18:01:47.696Z,6.67
2022-09-20T18:04:14.192Z,4.90
2022-09-20T18:06:50.745Z,4.90
2022-09-20T18:09:18.338Z,5.13
2022-09-20T18:11:47.030Z,5.33
2022-09-20T18:14:13.668Z,4.93
2022-09-20T18:16:40.582Z,5.40
2022-09-20T18:19:08.139Z,5.97
2022-09-20T18:21:36.273Z,6.30
2022-09-20T18:24:05.607Z,4.73
2022-09-20T18:26:33.111Z,5.60
2022-09-20T18:29:01.953Z,5.43
2022-09-20T18:31:39.283Z,4.03
2022-09-20T18:34:07.444Z,4.47
2022-09-20T18:36:36.417Z,2.80
2022-09-20T18:39:03.305Z,2.80
2022-09-20T18:41:34.153Z,2.27
2022-09-20T18:44:03.887Z,2.33
2022-09-20T18:46:34.398Z,2.10
2022-09-20T18:49:05.466Z,2.13
2022-09-20T18:51:35.864Z,2.47
2022-09-20T18:54:08.959Z,2.80
2022-09-20T18:56:37.672Z,6.63
2022-09-20T18:59:06.790Z,3.90
2022-09-20T19:01:34.018Z,1.93
2022-09-20T19:04:24.469Z,5.70
2022-09-20T19:07:08.084Z,5.77
2022-09-20T19:09:48.056Z,3.30
2022-09-20T19:12:26.352Z,2.40
2022-09-20T19:15:02.580Z,2.27
2022-09-20T19:17:54.135Z,3.10
2022-09-20T19:20:33.091Z,2.77
2022-09-20T19:23:25.888Z,2.30
2022-09-20T19:26:01.666Z,2.43
2022-09-20T19:28:28.836Z,2.87
2022-09-20T19:30:58.621Z,2.70
2022-09-20T19:33:25.396Z,2.97
2022-09-20T19:35:52.505Z,3.00
2022-09-20T19:38:30.032Z,2.90
2022-09-20T19:41:09.377Z,3.47
2022-09-20T19:43:37.239Z,2.80
2022-09-20T19:46:21.327Z,4.13
2022-09-20T19:49:03.062Z,2.83
2022-09-20T19:51:32.301Z,2.20
2022-09-20T19:53:59.298Z,2.30
2022-09-20T19:56:30.002Z,2.40
2022-09-20T19:58:57.144Z,2.70
2022-09-20T20:01:25.091Z,3.03
2022-09-20T20:03:52.872Z,2.30
2022-09-20T20:06:32.269Z,2.27
2022-09-20T20:09:17.818Z,2.30
2022-09-20T20:11:50.223Z,2.20
2022-09-20T20:14:20.259Z,3.30
2022-09-20T20:16:55.803Z,3.60
2022-09-20T20:19:35.343Z,2.90
2022-09-20T20:22:10.373Z,3.20
2022-09-20T20:24:46.244Z,2.63
2022-09-20T20:27:13.191Z,2.00
2022-09-20T20:29:39.764Z,2.03
2022-09-20T20:32:06.478Z,1.77
2022-09-20T20:34:34.782Z,1.83
2022-09-20T20:37:01.648Z,1.63
2022-09-20T20:39:29.967Z,1.90
2022-09-20T20:42:02.247Z,2.00
2022-09-20T20:44:35.168Z,2.40
2022-09-20T20:47:06.023Z,2.63
2022-09-20T20:49:32.664Z,2.60
2022-09-20T20:52:02.996Z,2.90
2022-09-20T20:54:29.554Z,2.90
2022-09-20T20:56:56.064Z,3.73
2022-09-20T20:59:22.894Z,3.40
2022-09-20T21:01:49.739Z,4.03
2022-09-20T21:04:17.178Z,3.40
2022-09-20T21:06:44.153Z,3.60
2022-09-20T21:09:11.016Z,3.70
2022-09-20T21:11:38.660Z,4.60
2022-09-20T21:14:07.258Z,4.73
2022-09-20T21:16:37.746Z,4.40
2022-09-20T21:19:05.700Z,4.30
2022-09-20T21:21:33.512Z,3.83
2022-09-20T21:24:01.432Z,3.10
2022-09-20T21:26:32.046Z,3.20
2022-09-20T21:28:59.623Z,2.60
2022-09-20T21:31:30.640Z,2.60
2022-09-20T21:33:57.367Z,2.37
2022-09-20T21:36:25.444Z,2.17
2022-09-20T21:38:52.219Z,1.80
2022-09-20T21:41:20.136Z,2.30
2022-09-20T21:43:47.669Z,2.17
2022-09-20T21:46:14.097Z,2.20
2022-09-20T21:48:41.088Z,2.20
2022-09-20T21:51:09.496Z,1.80
2022-09-20T21:53:36.063Z,1.93
2022-09-20T21:56:04.218Z,2.30
2022-09-20T21:58:31.015Z,2.73
2022-09-20T22:01:05.028Z,2.50
2022-09-20T22:03:35.720Z,2.67
2022-09-20T22:06:05.992Z,2.43
2022-09-20T22:08:32.570Z,2.47
2022-09-20T22:10:59.000Z,2.63
2022-09-20T22:13:25.572Z,2.13
2022-09-20T22:15:52.010Z,2.83
2022-09-20T22:18:18.470Z,2.40
2022-09-20T22:20:45.644Z,2.30
2022-09-20T22:23:12.049Z,2.33
2022-09-20T22:25:38.430Z,2.30
2022-09-20T22:28:04.843Z,2.00
2022-09-20T22:30:31.441Z,1.90
2022-09-20T22:32:57.923Z,1.87
2022-09-20T22:35:24.348Z,2.00
2022-09-20T22:37:50.797Z,1.80
2022-09-20T22:40:17.262Z,1.83
2022-09-20T22:42:43.701Z,1.73
2022-09-20T22:45:10.368Z,1.83
2022-09-20T22:47:36.762Z,1.93
2022-09-20T22:50:03.215Z,2.23
2022-09-20T22:52:29.847Z,2.00
2022-09-20T22:54:56.235Z,1.53
2022-09-20T22:57:22.656Z,1.70
2022-09-20T22:59:49.038Z,1.73
2022-09-20T23:02:15.435Z,1.67
2022-09-20T23:04:41.906Z,1.93
2022-09-20T23:07:08.996Z,2.50
2022-09-20T23:09:35.450Z,2.20
2022-09-20T23:12:01.946Z,2.20
2022-09-20T23:14:28.366Z,2.40
2022-09-20T23:16:54.775Z,1.73
2022-09-20T23:19:21.325Z,2.13
2022-09-20T23:21:47.727Z,1.97
2022-09-20T23:24:15.180Z,2.20
2022-09-20T23:26:42.213Z,1.80
2022-09-20T23:29:10.298Z,1.80
2022-09-20T23:31:37.714Z,1.63
2022-09-20T23:34:05.861Z,1.70
2022-09-20T23:36:33.391Z,1.70
2022-09-20T23:39:00.019Z,2.00
2022-09-20T23:41:27.294Z,1.70
2022-09-20T23:43:53.997Z,1.87
2022-09-20T23:46:21.552Z,1.87
2022-09-20T23:48:48.234Z,1.77
2022-09-20T23:51:15.590Z,1.87
2022-09-20T23:53:42.720Z,2.10
2022-09-20T23:56:09.787Z,2.20
2022-09-20T23:58:36.737Z,2.60
